METAR Data
IDs: Format: Raw Decoded Include TAF

Data at: 1019 UTC 26 Sep 2018

KFKN 261015Z AUTO 00000KT 1SM BR OVC002 23/23 A3004 RMK AO2 T02290225
KFKN 260955Z AUTO 00000KT 1/2SM FG OVC002 23/23 A3003 RMK AO2 LTG DSNT N T02290225
KFKN 260935Z AUTO 00000KT 1/2SM FG OVC002 23/23 A3004 RMK AO2 T02300226
KFKN 260915Z AUTO 00000KT 3/4SM BR OVC002 23/23 A3003 RMK AO2 T02300226
KFKN 260855Z AUTO 00000KT 3/4SM BR OVC002 23/23 A3004 RMK AO2 T02300227
KFKN 260835Z AUTO 00000KT 1SM -DZ OVC002 23/23 A3004 RMK AO2 T02310227
KFKN 260815Z AUTO 00000KT 2 1/2SM BR OVC002 23/23 A3005 RMK AO2 T02310227
KFKN 260755Z AUTO 00000KT 3SM BR OVC002 23/23 A3006 RMK AO2 T02310227
KFKN 260735Z AUTO 00000KT 5SM BR OVC002 23/23 A3006 RMK AO2 LTG DSNT NW T02310227
KFKN 260715Z AUTO 00000KT 5SM BR OVC002 23/23 A3006 RMK AO2 T02310229
KFKN 260655Z AUTO 00000KT 1SM BR OVC002 23/23 A3007 RMK AO2 T02310227
KFKN 260635Z AUTO 00000KT 1/2SM FG OVC002 23/23 A3007 RMK AO2 T02310228
KFKN 260615Z AUTO 00000KT 1SM BR OVC002 23/23 A3008 RMK AO2 T02320229
KFKN 260555Z AUTO 00000KT 1/2SM FG OVC002 23/23 A3008 RMK AO2 T02320230 10242 20221
KFKN 260535Z AUTO 00000KT 1/2SM FG OVC002 23/23 A3008 RMK AO2 T02320230
KFKN 260515Z AUTO 00000KT 1/2SM FG OVC002 23/23 A3009 RMK AO2 T02330230
KFKN 260455Z AUTO 00000KT 1 1/4SM BR OVC002 23/23 A3009 RMK AO2 T02330230 403080195
KFKN 260435Z AUTO 10003KT 2SM BR OVC002 24/23 A3010 RMK AO2 T02350231
KFKN 260415Z AUTO 00000KT 1 1/4SM BR OVC002 24/23 A3011 RMK AO2 T02350231
KFKN 260355Z AUTO 10004KT 4SM BR OVC004 24/23 A3011 RMK AO2 T02350232
KFKN 260335Z AUTO 09003KT 7SM OVC004 23/23 A3012 RMK AO2 T02330230
KFKN 260315Z AUTO 00000KT 10SM OVC004 23/23 A3013 RMK AO2 T02310228
KFKN 260255Z AUTO 00000KT 10SM OVC004 23/22 A3013 RMK AO2 T02270224
KFKN 260235Z AUTO 00000KT 10SM OVC004 23/22 A3012 RMK AO2 T02250221
KFKN 260215Z AUTO 00000KT 10SM OVC006 23/22 A3012 RMK AO2 T02250221
KFKN 260155Z AUTO 00000KT 10SM BKN006 23/22 A3012 RMK AO2 T02270224
KFKN 260135Z AUTO 00000KT 10SM CLR 23/23 A3012 RMK AO2 T02300226
KFKN 260115Z AUTO 00000KT 10SM SCT030 23/23 A3012 RMK AO2 T02310228
KFKN 260055Z AUTO 00000KT 10SM SCT007 SCT022 SCT028 24/23 A3013 RMK AO2 T02350232
KFKN 260035Z AUTO 00000KT 10SM SCT007 BKN018 OVC028 24/24 A3013 RMK AO2 T02380235
KFKN 260015Z AUTO 11004KT 10SM BKN012 BKN018 24/24 A3013 RMK AO2 T02390235
KFKN 252355Z AUTO 10003KT 10SM BKN012 24/24 A3013 RMK AO2 60001 T02400236 10308 20237
KFKN 252335Z AUTO 00000KT 10SM SCT014 24/24 A3013 RMK AO2 T02390236
KFKN 252315Z AUTO 00000KT 10SM BKN014 25/24 A3013 RMK AO2 T02460243
KFKN 252255Z AUTO 00000KT 10SM SCT016 25/24 A3014 RMK AO2 T02460242
KFKN 252235Z AUTO 14003KT 10SM CLR 25/24 A3014 RMK AO2 T02500242
KFKN 252215Z AUTO 15005KT 10SM CLR 26/24 A3014 RMK AO2 T02580238
KFKN 252155Z AUTO 13003KT 10SM SCT037 SCT110 26/25 A3014 RMK AO2 LTG DSNT SW T02570251
KFKN 252135Z AUTO 10006KT 10SM SCT032 BKN040 BKN110 26/25 A3014 RMK AO2 LTG DSNT SW T02600251
KFKN 252110Z AUTO 11005KT 10SM SCT016 BKN030 27/26 A3014 RMK AO2 T02650255
KFKN 252055Z AUTO 11005KT 10SM BKN014 BKN025 OVC080 27/26 A3015 RMK AO2 LTG DSNT S 60001 T02680256
KFKN 252035Z AUTO 09006KT 10SM VCTS SCT014 BKN080 27/26 A3014 RMK AO2 LTG DSNT S T02730255
KFKN 252015Z AUTO 12004KT 10SM SCT047 SCT060 BKN080 27/26 A3014 RMK AO2 LTG DSNT SW T02650261
KFKN 251955Z AUTO 09003KT 10SM SCT047 SCT050 OVC060 26/26 A3015 RMK AO2 LTG DSNT SW P0001 T02600257
KFKN 251935Z AUTO 11006KT 7SM -RA SCT025 BKN049 OVC060 26/25 A3014 RMK AO2 LTG DSNT S P0001 T02550251
KFKN 251915Z AUTO 11007G15KT 10SM SCT028 BKN032 OVC070 27/24 A3015 RMK AO2 LTG DSNT S T02680239
KFKN 251855Z AUTO 12004KT 10SM SCT035 SCT048 BKN075 29/23 A3015 RMK AO2 LTG DSNT SE T02940225
KFKN 251835Z AUTO 12004KT 10SM SCT043 SCT070 BKN080 31/22 A3015 RMK AO2 LTG DSNT SE T03080222
KFKN 251815Z AUTO 09005KT 10SM SCT043 SCT055 BKN080 30/22 A3016 RMK AO2 LTG DSNT E AND SE T02950219
KFKN 251755Z AUTO 11004KT 10SM VCTS SCT049 SCT080 29/22 A3016 RMK AO2 LTG DSNT E AND SE T02940215 10307 20218
KFKN 251735Z AUTO 00000KT 10SM SCT039 SCT049 30/21 A3018 RMK AO2 LTG DSNT SE T03010212
KFKN 251715Z AUTO 00000KT 10SM BKN037 BKN047 30/21 A3018 RMK AO2 T02970209
KFKN 251655Z AUTO 00000KT 10SM SCT035 BKN040 30/20 A3019 RMK AO2 LTG DSNT SE T02990204
KFKN 251635Z AUTO 16005KT 10SM SCT033 BKN050 30/21 A3019 RMK AO2 LTG DSNT SE T02980213
KFKN 251615Z AUTO 14004KT 10SM SCT031 30/21 A3020 RMK AO2 T02950214
KFKN 251555Z AUTO 09004KT 10SM SCT031 SCT090 30/22 A3021 RMK AO2 T02960216
KFKN 251535Z AUTO 12007KT 080V160 10SM SCT027 BKN033 BKN090 29/22 A3022 RMK AO2 T02900220
KFKN 251515Z AUTO 11006KT 10SM SCT025 SCT031 SCT090 29/22 A3022 RMK AO2 LTG DSNT SW T02850221
KFKN 251455Z AUTO 12005KT 10SM SCT023 28/22 A3023 RMK AO2 LTG DSNT SE T02840221
KFKN 251435Z AUTO 12006KT 10SM SCT023 28/22 A3024 RMK AO2 LTG DSNT S T02770223
KFKN 251415Z AUTO 10004KT 10SM SCT023 SCT031 27/23 A3024 RMK AO2 T02700226
KFKN 251355Z AUTO 10005KT 10SM CLR 26/23 A3024 RMK AO2 T02580234
KFKN 251335Z AUTO 12005KT 10SM CLR 25/24 A3024 RMK AO2 LTG DSNT SE T02540241
KFKN 251315Z AUTO 10003KT 10SM CLR 25/24 A3024 RMK AO2 T02460243
KFKN 251255Z AUTO 10004KT 10SM CLR 24/24 A3024 RMK AO2 T02390236
KFKN 251235Z AUTO 10005KT 10SM CLR 23/23 A3024 RMK AO2 T02280225
KFKN 251215Z AUTO 08004KT 10SM CLR 22/22 A3024 RMK AO2 T02240221
KFKN 251155Z AUTO 00000KT 5SM BR CLR 22/21 A3024 RMK AO2 T02170214 10219 20195
KFKN 251135Z AUTO 00000KT 1/4SM FG BKN003 OVC009 20/20 A3023 RMK AO2 T02000196
KFKN 251115Z AUTO 00000KT M1/4SM FG OVC003 20/20 A3023 RMK AO2 T02010198
KFKN 251055Z AUTO 00000KT 1/2SM FG OVC003 20/20 A3022 RMK AO2 T01990196
KFKN 251035Z AUTO 00000KT 3/4SM BR OVC003 20/20 A3021 RMK AO2 T02000197
KFKN 251015Z AUTO 00000KT 1 3/4SM BR OVC003 20/19 A3021 RMK AO2 T01970194
KFKN 250955Z AUTO 00000KT 1/2SM FG OVC003 20/19 A3021 RMK AO2 T01950192
KFKN 250935Z AUTO 00000KT 3/4SM BR OVC003 20/20 A3021 RMK AO2 T01990196
KFKN 250915Z AUTO 00000KT 3/4SM BR OVC003 20/20 A3021 RMK AO2 T02000197
KFKN 250855Z AUTO 00000KT 3/4SM BR OVC003 20/20 A3021 RMK AO2 T02030200
KFKN 250835Z AUTO 00000KT 1SM BR OVC005 21/20 A3021 RMK AO2 T02060202
KFKN 250815Z AUTO 00000KT 7SM OVC005 21/21 A3021 RMK AO2 T02080205
KFKN 250755Z AUTO 00000KT 7SM BKN007 OVC019 21/21 A3022 RMK AO2 T02130210
KFKN 250735Z AUTO 00000KT 10SM OVC007 22/21 A3023 RMK AO2 T02160213
KFKN 250715Z AUTO 00000KT 10SM OVC007 22/21 A3023 RMK AO2 T02160213
KFKN 250655Z AUTO 00000KT 10SM BKN009 BKN030 OVC050 22/22 A3024 RMK AO2 T02170215
KFKN 250635Z AUTO 00000KT 10SM SCT030 BKN048 OVC050 22/21 A3024 RMK AO2 T02160214
KFKN 250615Z AUTO 00000KT 10SM SCT047 BKN050 OVC080 22/21 A3024 RMK AO2 LTG DSNT S T02160212
KFKN 250555Z AUTO 00000KT 10SM SCT043 BKN055 BKN080 22/22 A3024 RMK AO2 T02200216 10234 20212
KFKN 250535Z AUTO 00000KT 10SM BKN043 OVC055 22/22 A3025 RMK AO2 T02210218
KFKN 250515Z AUTO 09003KT 10SM SCT029 BKN041 OVC060 22/22 A3025 RMK AO2 T02200217
KFKN 250455Z AUTO 07003KT 10SM SCT031 SCT047 OVC060 22/22 A3026 RMK AO2 T02200216 402780181
KFKN 250435Z AUTO 07003KT 10SM BKN031 BKN036 OVC042 22/22 A3026 RMK AO2 T02200216
KFKN 250415Z AUTO 00000KT 10SM BKN034 BKN049 OVC055 22/22 A3026 RMK AO2 T02180215
KFKN 250355Z AUTO 08003KT 10SM SCT036 BKN055 BKN100 22/21 A3026 RMK AO2 T02150212
KFKN 250335Z AUTO 00000KT 10SM SCT034 21/21 A3026 RMK AO2 T02130210
KFKN 250315Z AUTO 00000KT 10SM CLR 21/21 A3026 RMK AO2 T02130210
KFKN 250255Z AUTO 00000KT 10SM SCT100 22/21 A3026 RMK AO2 T02150211
KFKN 250235Z AUTO 00000KT 10SM SCT100 22/21 A3026 RMK AO2 T02160213
KFKN 250215Z AUTO 00000KT 10SM CLR 22/22 A3026 RMK AO2 T02180215
KFKN 250155Z AUTO 09003KT 10SM SCT070 22/22 A3025 RMK AO2 T02220220
KFKN 250135Z AUTO 07003KT 10SM SCT012 BKN070 22/22 A3024 RMK AO2 T02220220
KFKN 250115Z AUTO 08004KT 10SM SCT012 OVC060 23/22 A3024 RMK AO2 T02270223
KFKN 250055Z AUTO 06004KT 10SM BKN060 23/23 A3024 RMK AO2 T02270225
KFKN 250035Z AUTO 08004KT 10SM BKN060 23/23 A3023 RMK AO2 T02300226
KFKN 250015Z AUTO 07003KT 10SM OVC060 23/23 A3023 RMK AO2 T02340230
KFKN 242355Z AUTO 08003KT 10SM OVC060 23/23 A3023 RMK AO2 T02320230 10278 20231
KFKN 242335Z AUTO 00000KT 10SM BKN050 OVC060 23/23 A3022 RMK AO2 T02320230
KFKN 242315Z AUTO 06003KT 10SM SCT041 BKN047 OVC060 23/23 A3022 RMK AO2 T02310229
KFKN 242255Z AUTO 04003KT 10SM SCT019 BKN040 OVC060 23/23 A3021 RMK AO2 T02330230
KFKN 242235Z AUTO 05004KT 10SM SCT012 BKN020 BKN029 24/23 A3022 RMK AO2 T02360232